Time;durP1;ratioP1;P1;durP2;ratioP2;P2;SDS_P1;SDS_P2;PMS_P1;PMS_P2;Temp;Humidity;BMP_temperature;BMP_pressure;BME280_temperature;BME280_humidity;BME280_pressure;Samples;Min_cycle;Max_cycle;Signal;HPM_P1;HPM_P2
2021/01/13 00:00:26;;;;;;;7.93;2.03;;;;;;;0.92;87.40;100036.38;4992339;28;20183;-73
2021/01/13 00:02:54;;;;;;;1.63;0.90;;;;;;;0.94;87.48;100052.25;4992433;28;20256;-73
2021/01/13 00:05:20;;;;;;;17.80;2.60;;;;;;;0.91;87.54;100037.44;4992221;28;20174;-74
2021/01/13 00:07:49;;;;;;;6.50;1.50;;;;;;;0.83;87.74;100030.66;4991814;28;20908;-73
2021/01/13 00:10:16;;;;;;;3.67;2.20;;;;;;;0.76;88.27;100035.44;4992291;28;20491;-78
2021/01/13 00:12:41;;;;;;;2.63;1.37;;;;;;;0.75;88.93;100030.34;4974676;28;20435;-75
2021/01/13 00:15:07;;;;;;;4.40;1.93;;;;;;;0.77;88.60;100028.19;4991892;28;20412;-75
2021/01/13 00:17:33;;;;;;;1.67;0.90;;;;;;;0.77;88.58;100038.94;4991632;28;20209;-73
2021/01/13 00:19:59;;;;;;;8.57;2.13;;;;;;;0.75;88.85;100033.03;4991978;28;20412;-73
2021/01/13 00:22:24;;;;;;;5.57;2.10;;;;;;;0.76;88.66;100034.66;4991161;28;20248;-73
2021/01/13 00:24:50;;;;;;;5.57;2.17;;;;;;;0.75;88.65;100028.47;4991786;28;20169;-73
2021/01/13 00:27:21;;;;;;;2.37;1.77;;;;;;;0.76;88.81;100032.75;4991600;28;20220;-75
2021/01/13 00:29:47;;;;;;;1.50;1.23;;;;;;;0.76;89.38;100029.28;4974377;28;20491;-73
2021/01/13 00:32:13;;;;;;;9.23;2.23;;;;;;;0.75;89.13;100033.84;4991828;28;20409;-73
2021/01/13 00:34:38;;;;;;;7.80;2.30;;;;;;;0.77;89.09;100034.38;4991483;28;20413;-74
2021/01/13 00:37:06;;;;;;;5.33;2.10;;;;;;;0.79;88.92;100029.56;4991320;28;20236;-73
2021/01/13 00:39:31;;;;;;;6.00;2.60;;;;;;;0.80;89.33;100028.50;4991533;28;20201;-76
2021/01/13 00:41:57;;;;;;;7.07;2.30;;;;;;;0.82;89.24;100020.16;4991736;28;20440;-75
2021/01/13 00:44:22;;;;;;;1.80;1.30;;;;;;;0.80;89.20;100022.31;4991436;28;20226;-73
2021/01/13 00:46:47;;;;;;;5.57;1.97;;;;;;;0.79;89.48;100021.50;4991230;28;20177;-73
2021/01/13 00:49:13;;;;;;;5.87;2.00;;;;;;;0.81;89.18;100040.84;4974537;28;20204;-74
2021/01/13 00:51:42;;;;;;;5.93;2.20;;;;;;;0.80;89.27;100033.88;4991310;28;20216;-75
2021/01/13 00:54:10;;;;;;;3.67;2.40;;;;;;;0.82;89.31;100029.03;4990636;28;20177;-73
2021/01/13 00:56:41;;;;;;;7.87;2.53;;;;;;;0.80;89.79;100023.09;4990259;28;21004;-78
2021/01/13 00:59:07;;;;;;;18.83;2.90;;;;;;;0.79;89.83;100023.38;4991099;28;20405;-74
2021/01/13 01:01:32;;;;;;;5.67;2.23;;;;;;;0.80;89.38;100027.69;4991168;28;20432;-74
2021/01/13 01:03:58;;;;;;;7.10;3.03;;;;;;;0.81;89.25;100026.59;4990687;28;20652;-82
2021/01/13 01:06:24;;;;;;;15.37;2.70;;;;;;;0.83;89.49;100024.47;4990260;28;20260;-81
2021/01/13 01:08:51;;;;;;;4.77;2.50;;;;;;;0.83;89.33;100024.47;4990421;28;20188;-82
2021/01/13 01:11:25;;;;;;;4.77;2.50;;;;;;;0.85;89.15;100033.09;4991117;28;20231;-81
2021/01/13 01:13:50;;;;;;;5.07;1.97;;;;;;;0.83;88.98;100021.78;4991210;28;20960;-79
2021/01/13 01:16:16;;;;;;;3.83;1.87;;;;;;;0.86;88.97;100026.63;4989972;28;20472;-73
2021/01/13 01:18:43;;;;;;;8.00;2.20;;;;;;;0.85;89.54;100031.19;4973329;28;20181;-74
2021/01/13 01:21:09;;;;;;;4.63;1.73;;;;;;;0.79;89.56;100042.19;4972691;28;20577;-72
2021/01/13 01:23:35;;;;;;;7.97;2.87;;;;;;;0.75;90.53;100047.28;4990373;28;20424;-76
2021/01/13 01:26:02;;;;;;;6.87;2.27;;;;;;;0.71;91.09;100048.03;4990555;28;20509;-83
2021/01/13 01:28:27;;;;;;;2.57;1.23;;;;;;;0.68;91.28;100056.59;4991388;28;20420;-72
2021/01/13 01:30:53;;;;;;;0.90;0.63;;;;;;;0.66;91.33;100058.75;4997393;28;20413;-72
2021/01/13 01:33:18;;;;;;;6.07;1.53;;;;;;;0.67;90.89;100052.31;4995361;28;20260;-73
2021/01/13 01:35:43;;;;;;;7.50;1.70;;;;;;;0.67;90.62;100060.38;4993898;28;20180;-72
2021/01/13 01:38:09;;;;;;;7.57;1.63;;;;;;;0.72;90.52;100069.28;4993919;28;20267;-75
2021/01/13 01:40:34;;;;;;;3.27;1.80;;;;;;;0.77;89.75;100074.72;4994125;28;20177;-73
2021/01/13 01:42:59;;;;;;;12.00;2.40;;;;;;;0.78;89.92;100073.66;4993671;28;20165;-72
2021/01/13 01:45:29;;;;;;;5.03;2.40;;;;;;;0.79;89.87;100077.16;4993852;28;20521;-75
2021/01/13 01:48:06;;;;;;;3.37;1.17;;;;;;;0.82;89.61;100072.06;4993648;28;20173;-77
2021/01/13 01:50:34;;;;;;;4.27;2.37;;;;;;;0.89;89.20;100077.25;4993862;28;20759;-74
2021/01/13 01:53:25;;;;;;;5.93;2.80;;;;;;;0.91;89.02;100075.09;4965558;28;841615;-73
2021/01/13 01:56:19;;;;;;;2.90;1.93;;;;;;;0.92;89.00;100070.53;4995000;28;20565;-78
2021/01/13 01:58:49;;;;;;;6.27;2.20;;;;;;;0.91;88.76;100076.97;4995104;28;20412;-72
2021/01/13 02:01:18;;;;;;;5.43;2.40;;;;;;;0.90;89.06;100070.78;4994794;28;20487;-73
2021/01/13 02:03:52;;;;;;;3.93;1.40;;;;;;;0.89;89.03;100067.28;4994695;28;20408;-72
2021/01/13 02:06:18;;;;;;;3.43;1.97;;;;;;;0.88;89.11;100079.13;4994154;28;20412;-75
2021/01/13 02:08:46;;;;;;;7.23;3.00;;;;;;;0.86;88.99;100066.97;4994577;28;20408;-74
2021/01/13 02:11:19;;;;;;;6.53;2.37;;;;;;;0.85;89.09;100071.53;4994526;28;20416;-74
2021/01/13 02:13:46;;;;;;;4.20;2.10;;;;;;;0.86;88.69;100075.84;4994153;28;20750;-73
2021/01/13 02:16:14;;;;;;;10.93;2.10;;;;;;;0.85;89.03;100068.84;4994027;28;20413;-74
2021/01/13 02:18:47;;;;;;;7.53;2.30;;;;;;;0.85;89.11;100070.72;4994457;28;20466;-73
2021/01/13 02:21:15;;;;;;;7.33;2.60;;;;;;;0.83;88.77;100064.78;4993808;28;20986;-73
2021/01/13 02:24:07;;;;;;;4.77;1.77;;;;;;;0.80;89.02;100074.19;4994206;28;20429;-73
2021/01/13 02:26:32;;;;;;;10.87;1.87;;;;;;;0.77;88.88;100080.09;4941917;28;20428;-75
2021/01/13 02:29:05;;;;;;;13.33;2.40;;;;;;;0.76;89.08;100064.22;4976720;28;20558;-72
2021/01/13 02:32:10;;;;;;;10.00;2.03;;;;;;;0.75;89.00;100071.47;4994203;28;20177;-74
2021/01/13 02:34:44;;;;;;;3.83;1.57;;;;;;;0.72;88.84;100092.66;4979838;28;20968;-73
2021/01/13 02:37:32;;;;;;;3.80;1.70;;;;;;;0.72;88.74;100076.53;4993721;28;20517;-78
2021/01/13 02:39:57;;;;;;;6.80;2.60;;;;;;;0.68;88.69;100060.09;4993972;28;20931;-72
2021/01/13 02:42:32;;;;;;;6.13;1.87;;;;;;;0.72;88.74;100063.09;4994134;28;20424;-73
2021/01/13 02:45:17;;;;;;;5.97;1.97;;;;;;;0.72;88.40;100063.09;4993567;28;20184;-73
2021/01/13 02:48:07;;;;;;;6.87;2.30;;;;;;;0.73;88.58;100070.13;4993669;28;20487;-73
2021/01/13 02:50:38;;;;;;;5.63;2.37;;;;;;;0.73;88.35;100062.84;4984162;28;20510;-73
2021/01/13 02:53:09;;;;;;;8.60;2.03;;;;;;;0.76;88.03;100051.59;4993705;28;20432;-73
2021/01/13 02:55:46;;;;;;;4.27;1.90;;;;;;;0.79;87.93;100061.00;4993366;28;20427;-74
2021/01/13 02:58:23;;;;;;;4.17;1.90;;;;;;;0.78;88.52;100065.56;4975590;28;20468;-74
2021/01/13 03:00:49;;;;;;;7.43;2.97;;;;;;;0.78;88.48;100067.47;4975919;28;20431;-74
2021/01/13 03:03:17;;;;;;;7.57;2.07;;;;;;;0.77;88.40;100072.03;4993604;28;20428;-76
2021/01/13 03:05:45;;;;;;;6.70;2.77;;;;;;;0.79;88.08;100061.00;4993333;28;20188;-77
2021/01/13 03:08:11;;;;;;;5.60;2.43;;;;;;;0.82;88.14;100063.19;4993170;28;20481;-73
2021/01/13 03:10:39;;;;;;;3.60;1.50;;;;;;;0.81;87.95;100059.69;4993701;28;20444;-79
2021/01/13 03:13:07;;;;;;;8.37;1.90;;;;;;;0.80;88.16;100076.88;4993828;28;20432;-76
2021/01/13 03:15:35;;;;;;;4.33;2.00;;;;;;;0.81;88.00;100059.69;4993416;28;20425;-76
2021/01/13 03:18:00;;;;;;;5.60;1.77;;;;;;;0.81;87.84;100070.44;4975903;28;20461;-79
2021/01/13 03:20:31;;;;;;;10.37;2.47;;;;;;;0.80;88.23;100047.31;4992773;28;20793;-78
2021/01/13 03:23:20;;;;;;;7.60;2.10;;;;;;;0.81;87.91;100054.31;4993393;28;20614;-81
2021/01/13 03:25:53;;;;;;;8.50;2.00;;;;;;;0.84;88.11;100053.78;4993400;28;20421;-73
2021/01/13 03:28:23;;;;;;;4.60;2.03;;;;;;;0.86;88.09;100064.28;4993292;28;20917;-75
2021/01/13 03:30:51;;;;;;;9.23;2.27;;;;;;;0.89;88.21;100066.47;4993085;28;20439;-73
2021/01/13 03:33:16;;;;;;;8.50;2.70;;;;;;;0.91;88.19;100060.84;4993232;28;20420;-76
2021/01/13 03:35:57;;;;;;;8.47;1.93;;;;;;;0.89;89.07;100058.41;4975619;28;20575;-78
2021/01/13 03:38:24;;;;;;;5.43;2.00;;;;;;;0.83;89.50;100057.53;4992475;28;20653;-74
2021/01/13 03:40:50;;;;;;;10.83;3.00;;;;;;;0.85;89.34;100065.34;4993055;28;20436;-84
2021/01/13 03:43:20;;;;;;;4.90;2.37;;;;;;;0.86;89.44;100051.66;4992952;28;20762;-73
2021/01/13 03:45:52;;;;;;;3.67;1.90;;;;;;;0.89;88.85;100063.78;4975528;28;20428;-76
2021/01/13 03:48:36;;;;;;;2.83;2.33;;;;;;;0.99;88.39;100071.91;4992693;28;20409;-77
2021/01/13 03:51:02;;;;;;;3.50;1.57;;;;;;;1.00;88.13;100062.78;4992846;28;20813;-80
2021/01/13 03:53:28;;;;;;;7.53;2.70;;;;;;;1.00;87.85;100064.66;4975146;28;20800;-80
2021/01/13 03:55:57;;;;;;;3.13;2.03;;;;;;;1.00;87.65;100061.97;4993399;28;20424;-75
2021/01/13 03:58:47;;;;;;;6.63;1.90;;;;;;;1.03;87.67;100056.09;4990851;28;20291;-79
2021/01/13 04:01:35;;;;;;;4.67;1.90;;;;;;;1.09;87.23;100049.69;4992343;28;20555;-80
2021/01/13 04:04:21;;;;;;;14.27;2.93;;;;;;;1.11;87.08;100050.22;4991662;28;20436;-77
2021/01/13 04:06:58;;;;;;;5.70;2.60;;;;;;;1.11;86.57;100061.78;4992236;28;20764;-76
2021/01/13 04:09:24;;;;;;;5.00;2.33;;;;;;;1.10;87.09;100040.53;4992347;28;20424;-77
2021/01/13 04:11:50;;;;;;;11.70;3.00;;;;;;;1.07;87.02;100057.19;4992681;28;20421;-80
2021/01/13 04:14:18;;;;;;;6.57;1.63;;;;;;;1.10;86.89;100040.53;4992233;28;20650;-80
2021/01/13 04:16:44;;;;;;;5.50;2.23;;;;;;;1.08;87.28;100040.78;4991967;28;20563;-78
2021/01/13 04:19:10;;;;;;;2.17;1.87;;;;;;;1.08;87.11;100048.06;4992332;28;20951;-79
2021/01/13 04:21:35;;;;;;;6.20;2.20;;;;;;;1.12;87.22;100047.28;4991933;28;20661;-77
2021/01/13 04:24:01;;;;;;;8.57;2.83;;;;;;;1.16;87.08;100047.59;4992131;28;20177;-78
2021/01/13 04:26:28;;;;;;;5.47;1.67;;;;;;;1.20;86.86;100046.00;4991860;28;20173;-75
2021/01/13 04:28:53;;;;;;;6.37;2.00;;;;;;;1.25;86.54;100053.28;4974665;28;20625;-78
2021/01/13 04:31:19;;;;;;;3.13;1.40;;;;;;;1.27;86.83;100061.91;4974681;28;20431;-80
2021/01/13 04:33:46;;;;;;;14.17;2.83;;;;;;;1.12;87.86;100058.03;4992029;28;20724;-75
2021/01/13 04:36:12;;;;;;;5.00;2.93;;;;;;;0.91;89.38;100044.72;4991573;28;20264;-81
2021/01/13 04:38:38;;;;;;;4.27;2.23;;;;;;;0.76;90.64;100051.59;4991880;28;20428;-76
2021/01/13 04:41:17;;;;;;;3.93;2.27;;;;;;;0.69;91.40;100058.22;4992114;28;20512;-78
2021/01/13 04:44:02;;;;;;;15.33;2.10;;;;;;;0.69;91.93;100055.53;4991802;28;20273;-80
2021/01/13 04:46:33;;;;;;;3.20;1.87;;;;;;;0.67;92.26;100050.41;4991375;28;20448;-77
2021/01/13 04:49:01;;;;;;;9.57;2.10;;;;;;;0.68;92.86;100053.91;4991746;28;20417;-83
2021/01/13 04:51:26;;;;;;;8.40;2.53;;;;;;;0.72;92.33;100044.25;4991648;28;20432;-77
2021/01/13 04:53:54;;;;;;;2.90;2.27;;;;;;;0.74;92.39;100047.53;4991760;28;20459;-78
2021/01/13 04:56:24;;;;;;;6.77;3.37;;;;;;;0.77;91.96;100036.25;4991233;28;20177;-76
2021/01/13 04:59:14;;;;;;;8.23;2.97;;;;;;;0.78;92.30;100027.13;4974218;28;20432;-76
2021/01/13 05:01:39;;;;;;;4.03;2.27;;;;;;;0.84;91.08;100021.53;4991649;28;20420;-85
2021/01/13 05:04:26;;;;;;;8.03;3.43;;;;;;;0.86;91.23;100026.63;4991549;28;20439;-79
2021/01/13 05:07:30;;;;;;;10.30;3.93;;;;;;;0.86;91.08;100015.88;4973992;28;20177;-79
2021/01/13 05:10:08;;;;;;;6.43;2.93;;;;;;;0.87;91.53;100020.22;4974126;28;20432;-73
2021/01/13 05:12:58;;;;;;;8.47;3.43;;;;;;;0.82;91.37;100006.72;4973891;28;20515;-76
2021/01/13 05:15:31;;;;;;;13.67;4.10;;;;;;;0.76;92.06;100013.13;4991305;28;20424;-76
2021/01/13 05:18:00;;;;;;;6.57;4.97;;;;;;;0.71;92.14;100016.56;4991095;28;20936;-74
2021/01/13 05:20:27;;;;;;;6.90;2.90;;;;;;;0.70;92.47;100022.22;4990934;28;20511;-73
2021/01/13 05:22:54;;;;;;;15.47;4.33;;;;;;;0.71;92.66;100007.69;4973708;28;20921;-77
2021/01/13 05:25:43;;;;;;;7.20;3.03;;;;;;;0.71;91.94;100010.38;4991261;28;20454;-73
2021/01/13 05:28:20;;;;;;;6.23;3.07;;;;;;;0.74;92.19;100016.09;4971524;28;21000;-73
2021/01/13 05:30:47;;;;;;;10.37;4.60;;;;;;;0.74;92.11;100004.53;4971745;28;20890;-75
2021/01/13 05:33:15;;;;;;;7.43;3.57;;;;;;;0.75;92.12;100015.00;4971767;28;20513;-74
2021/01/13 05:35:43;;;;;;;8.97;3.30;;;;;;;0.77;92.36;100014.75;4972032;28;20422;-75
2021/01/13 05:38:13;;;;;;;10.30;3.27;;;;;;;0.80;92.00;100020.41;4971330;28;20475;-74
2021/01/13 05:40:47;;;;;;;11.30;3.30;;;;;;;0.83;91.81;100006.44;4971818;28;20424;-74
2021/01/13 05:43:13;;;;;;;7.50;3.20;;;;;;;0.88;91.11;100016.47;4971712;28;20421;-74
2021/01/13 05:45:40;;;;;;;8.93;2.87;;;;;;;0.92;90.92;100006.00;4971633;28;20500;-74
2021/01/13 05:48:15;;;;;;;5.90;3.23;;;;;;;0.94;90.99;99991.22;4971343;28;20889;-76
2021/01/13 05:50:41;;;;;;;11.13;3.57;;;;;;;0.97;90.56;99989.88;4971785;28;20424;-78
2021/01/13 05:53:07;;;;;;;13.17;2.60;;;;;;;0.99;90.44;99996.63;4971553;28;20439;-74
2021/01/13 05:55:33;;;;;;;7.30;3.23;;;;;;;1.04;89.76;99995.84;4971776;28;20445;-83
2021/01/13 05:58:00;;;;;;;2.73;2.10;;;;;;;1.08;89.20;99981.63;4971157;28;20637;-83
2021/01/13 06:00:30;;;;;;;8.27;3.73;;;;;;;1.08;89.08;99987.00;4971587;28;20178;-81
2021/01/13 06:02:57;;;;;;;5.40;2.50;;;;;;;1.13;89.08;100002.34;4970300;28;20973;-78
2021/01/13 06:05:24;;;;;;;8.60;3.77;;;;;;;1.10;89.41;99989.44;4971494;28;20417;-76
2021/01/13 06:07:52;;;;;;;7.47;2.83;;;;;;;1.12;89.18;100003.41;4971227;28;20435;-77
2021/01/13 06:10:19;;;;;;;4.23;2.50;;;;;;;1.14;89.19;99993.22;4971638;28;20509;-74
2021/01/13 06:12:49;;;;;;;4.30;2.50;;;;;;;1.12;88.78;99990.78;4954250;28;20421;-78
2021/01/13 06:15:21;;;;;;;8.63;2.77;;;;;;;1.16;89.18;99980.31;4971496;28;20421;-74
2021/01/13 06:17:54;;;;;;;15.10;2.87;;;;;;;1.14;88.88;99996.72;4971213;28;20565;-74
2021/01/13 06:20:25;;;;;;;11.40;2.07;;;;;;;1.14;89.38;99987.81;4972019;28;20422;-76
2021/01/13 06:22:52;;;;;;;9.17;1.60;;;;;;;1.13;89.42;99997.78;4975211;28;20505;-78
2021/01/13 06:25:28;;;;;;;5.67;2.07;;;;;;;1.07;89.72;99998.03;4974831;28;20432;-84
2021/01/13 06:28:22;;;;;;;3.17;1.60;;;;;;;1.03;90.37;99997.75;4974708;28;20417;-81
2021/01/13 06:30:59;;;;;;;16.17;3.20;;;;;;;0.99;90.91;99995.81;4974896;28;20828;-78
2021/01/13 06:33:24;;;;;;;8.47;3.20;;;;;;;0.95;91.20;99995.50;4974962;28;20504;-84
2021/01/13 06:36:10;;;;;;;8.20;3.07;;;;;;;0.96;91.00;99994.44;4973496;28;20516;-78
2021/01/13 06:38:53;;;;;;;6.63;2.37;;;;;;;0.99;91.09;99980.47;4974749;28;20288;-78
2021/01/13 06:41:19;;;;;;;16.93;2.87;;;;;;;1.02;90.89;99990.75;4974677;28;20397;-83
2021/01/13 06:44:03;;;;;;;6.60;2.83;;;;;;;1.04;90.93;99993.16;4974551;28;20975;-80
2021/01/13 06:46:29;;;;;;;11.70;2.63;;;;;;;1.06;91.04;99991.84;4956902;28;20560;-80
2021/01/13 06:49:09;;;;;;;4.03;2.30;;;;;;;1.04;91.00;99999.34;4957123;28;20425;-77
2021/01/13 06:51:35;;;;;;;9.97;2.50;;;;;;;1.00;91.47;99987.47;4974410;28;20453;-79
2021/01/13 06:54:02;;;;;;;15.87;3.77;;;;;;;1.00;91.65;100003.59;4974700;28;20425;-78
2021/01/13 06:56:28;;;;;;;5.27;2.80;;;;;;;1.03;91.60;100003.13;4974162;28;20178;-76
2021/01/13 06:59:00;;;;;;;12.43;2.87;;;;;;;1.08;91.43;100003.13;4993449;28;20424;-77
2021/01/13 07:01:26;;;;;;;4.73;2.70;;;;;;;1.16;90.83;100007.22;4993856;28;20177;-80
2021/01/13 07:04:04;;;;;;;5.00;1.97;;;;;;;1.23;90.39;99998.91;4976351;28;20432;-81
2021/01/13 07:06:31;;;;;;;3.90;2.43;;;;;;;1.25;89.59;99994.88;4975982;28;20184;-81
2021/01/13 07:08:57;;;;;;;2.33;1.73;;;;;;;1.29;89.77;100000.56;4993942;28;20420;-82
2021/01/13 07:11:23;;;;;;;4.87;1.87;;;;;;;1.28;89.55;99994.38;4993715;28;20482;-82
2021/01/13 07:13:53;;;;;;;8.67;3.07;;;;;;;1.27;89.71;100002.69;4993822;28;20480;-79
2021/01/13 07:16:37;;;;;;;3.33;2.57;;;;;;;1.25;89.74;99996.78;4993469;28;20409;-82
2021/01/13 07:19:02;;;;;;;5.87;2.93;;;;;;;1.22;90.37;100000.78;4993337;28;20412;-81
2021/01/13 07:21:38;;;;;;;5.93;3.40;;;;;;;1.16;90.94;99999.97;4992405;28;20415;-77
2021/01/13 07:24:12;;;;;;;9.53;2.70;;;;;;;1.12;90.94;99990.78;4993580;28;20603;-81
2021/01/13 07:26:39;;;;;;;30.50;2.43;;;;;;;1.13;91.08;100003.16;4992705;28;20912;-77
2021/01/13 07:29:04;;;;;;;6.83;3.07;;;;;;;1.11;90.95;99993.72;4993201;28;20444;-75
2021/01/13 07:31:30;;;;;;;5.23;2.70;;;;;;;1.10;91.65;99989.44;4992286;28;20900;-81
2021/01/13 07:34:04;;;;;;;3.80;2.83;;;;;;;1.09;91.55;99998.56;4993198;28;20170;-74
2021/01/13 07:36:32;;;;;;;3.20;2.93;;;;;;;1.10;91.62;99992.94;4995141;28;20224;-73
2021/01/13 07:39:04;;;;;;;13.13;4.57;;;;;;;1.14;91.34;99991.31;4983873;28;20515;-73
2021/01/13 07:41:44;;;;;;;3.70;2.63;;;;;;;1.17;91.39;100008.84;4993555;28;20401;-73
2021/01/13 07:44:27;;;;;;;7.53;4.20;;;;;;;1.21;91.08;100001.06;4993127;28;20449;-73
2021/01/13 07:47:00;;;;;;;6.33;3.90;;;;;;;1.22;91.21;100008.06;4992913;28;20420;-73
2021/01/13 07:49:43;;;;;;;8.03;3.77;;;;;;;1.23;90.69;100017.75;4975764;28;20827;-73
2021/01/13 07:52:09;;;;;;;6.07;3.37;;;;;;;1.21;91.51;100012.63;4993212;28;20436;-75
2021/01/13 07:54:36;;;;;;;10.40;3.13;;;;;;;1.19;91.49;100002.13;4993369;28;20507;-75
2021/01/13 07:57:06;;;;;;;2.50;2.00;;;;;;;1.17;91.86;100019.63;4992384;28;20463;-73
2021/01/13 07:59:44;;;;;;;4.43;2.60;;;;;;;1.16;91.59;100010.72;4992503;28;20413;-74
2021/01/13 08:02:31;;;;;;;9.70;3.47;;;;;;;1.21;91.34;100022.59;4992621;28;20435;-74
2021/01/13 08:05:37;;;;;;;5.53;2.93;;;;;;;1.24;91.48;100022.06;4975025;28;20417;-73
2021/01/13 08:08:10;;;;;;;2.93;2.63;;;;;;;1.24;91.05;100011.28;4974556;28;20428;-76
2021/01/13 08:10:40;;;;;;;3.30;3.00;;;;;;;1.27;90.76;100016.16;4992710;28;20427;-72
2021/01/13 08:13:23;;;;;;;6.50;3.30;;;;;;;1.27;91.00;100021.53;4992378;28;20839;-73
2021/01/13 08:16:24;;;;;;;9.87;3.30;;;;;;;1.28;91.24;100009.69;4992452;28;20428;-73
2021/01/13 08:19:35;;;;;;;5.53;4.33;;;;;;;1.32;90.66;100013.50;4992120;28;20490;-71
2021/01/13 08:22:01;;;;;;;3.67;2.40;;;;;;;1.30;90.73;100019.16;4921555;28;20424;-70
2021/01/13 08:24:33;;;;;;;2.57;2.40;;;;;;;1.33;91.10;100012.44;4974717;28;20420;-78
2021/01/13 08:27:05;;;;;;;8.17;2.50;;;;;;;1.36;91.05;100010.03;4974366;28;20428;-71
2021/01/13 08:29:35;;;;;;;4.60;3.80;;;;;;;1.40;90.88;100018.38;4991999;28;20502;-71
2021/01/13 08:32:10;;;;;;;2.70;2.50;;;;;;;1.41;90.83;100011.94;4992102;28;20413;-73
2021/01/13 08:34:39;;;;;;;5.83;2.40;;;;;;;1.46;90.73;100011.97;4992026;28;20506;-74
2021/01/13 08:37:05;;;;;;;6.57;2.87;;;;;;;1.51;90.33;100017.38;4973967;28;20499;-71
2021/01/13 08:39:33;;;;;;;3.27;2.10;;;;;;;1.52;90.53;100005.53;4974403;28;20420;-71
2021/01/13 08:42:20;;;;;;;3.23;2.33;;;;;;;1.55;90.15;100012.25;4991920;28;20427;-71
2021/01/13 08:44:46;;;;;;;5.40;3.03;;;;;;;1.56;89.54;100003.91;4991998;28;20452;-77
2021/01/13 08:47:11;;;;;;;7.80;2.80;;;;;;;1.59;89.28;100005.28;4991890;28;20448;-71
2021/01/13 08:49:37;;;;;;;9.37;4.17;;;;;;;1.61;89.23;100009.34;4974442;28;20650;-71
2021/01/13 08:52:08;;;;;;;8.20;2.90;;;;;;;1.62;89.08;100004.78;4991969;28;20193;-71
2021/01/13 08:54:34;;;;;;;4.27;2.07;;;;;;;1.61;89.77;99997.75;4992041;28;20173;-78
2021/01/13 08:56:59;;;;;;;4.23;2.80;;;;;;;1.63;89.64;100011.78;4991456;28;20456;-73
2021/01/13 08:59:37;;;;;;;3.43;3.00;;;;;;;1.63;89.70;100007.19;4992345;28;20181;-73
2021/01/13 09:02:08;;;;;;;2.33;2.13;;;;;;;1.63;89.98;100015.28;4991595;28;20414;-73
2021/01/13 09:04:56;;;;;;;4.23;2.70;;;;;;;1.63;90.19;100017.97;4991613;28;20905;-71
2021/01/13 09:07:29;;;;;;;7.10;2.30;;;;;;;1.62;89.92;100019.03;4991163;28;20435;-71
2021/01/13 09:09:59;;;;;;;2.60;2.13;;;;;;;1.65;90.43;100020.38;4991506;28;20451;-71
2021/01/13 09:12:32;;;;;;;2.87;2.67;;;;;;;1.68;90.58;100030.63;4991762;28;20879;-72
2021/01/13 09:15:25;;;;;;;3.23;2.47;;;;;;;1.72;90.36;100027.13;4973292;28;20428;-71
2021/01/13 09:17:55;;;;;;;9.10;2.63;;;;;;;1.73;90.10;100017.19;4973724;28;20464;-71
2021/01/13 09:20:22;;;;;;;7.60;2.73;;;;;;;1.75;89.85;100013.16;4991258;28;20447;-70
2021/01/13 09:23:02;;;;;;;6.13;2.77;;;;;;;1.74;89.70;100014.25;4992060;28;20409;-71
2021/01/13 09:25:45;;;;;;;3.80;2.63;;;;;;;1.74;90.01;100026.91;4991265;28;20431;-70
2021/01/13 09:28:16;;;;;;;3.57;2.30;;;;;;;1.75;89.96;100023.13;4992069;28;20760;-71
2021/01/13 09:30:42;;;;;;;4.37;2.27;;;;;;;1.77;90.19;100016.41;4992179;28;20440;-71
2021/01/13 09:33:07;;;;;;;3.07;2.17;;;;;;;1.76;89.72;100017.47;4991398;28;20416;-72
2021/01/13 09:35:36;;;;;;;2.40;2.30;;;;;;;1.77;89.90;100013.72;4991127;28;20256;-73
2021/01/13 09:38:05;;;;;;;2.47;2.27;;;;;;;1.77;90.17;100007.53;4990810;28;20364;-71
2021/01/13 09:40:54;;;;;;;3.30;3.00;;;;;;;1.74;90.15;100003.47;4991376;28;20902;-74
2021/01/13 09:43:44;;;;;;;4.03;3.17;;;;;;;1.73;90.73;100012.59;4973753;28;20428;-72
2021/01/13 09:46:21;;;;;;;14.23;1.93;;;;;;;1.72;90.78;100010.97;4990980;28;20476;-71
2021/01/13 09:49:03;;;;;;;12.50;2.37;;;;;;;1.73;91.02;100007.22;4991338;28;20420;-74
2021/01/13 09:51:29;;;;;;;2.23;2.00;;;;;;;1.74;91.28;100011.56;4990974;28;20428;-73
2021/01/13 09:53:57;;;;;;;5.63;2.83;;;;;;;1.71;91.11;100008.56;4990984;28;20475;-75
2021/01/13 09:56:24;;;;;;;6.40;2.60;;;;;;;1.68;91.34;100003.69;4993192;28;20170;-74
2021/01/13 09:58:52;;;;;;;2.50;2.30;;;;;;;1.69;91.56;100003.44;4994641;28;20967;-72
2021/01/13 10:01:24;;;;;;;3.07;2.87;;;;;;;1.72;91.59;100000.22;4977288;28;20523;-75
2021/01/13 10:03:57;;;;;;;3.03;2.20;;;;;;;1.82;91.11;100007.53;4994633;28;20471;-72
2021/01/13 10:06:23;;;;;;;2.77;1.87;;;;;;;1.91;90.77;100005.94;4994233;28;20413;-74
2021/01/13 10:08:51;;;;;;;2.23;1.77;;;;;;;1.99;90.12;100005.41;4994495;28;20916;-77
2021/01/13 10:11:18;;;;;;;3.20;2.90;;;;;;;2.03;89.45;99994.94;4994581;28;20456;-70
2021/01/13 10:13:46;;;;;;;3.27;2.57;;;;;;;2.05;89.44;100003.56;4994371;28;20460;-77
2021/01/13 10:16:13;;;;;;;3.83;2.70;;;;;;;2.07;88.88;99993.31;4976697;28;20502;-74
2021/01/13 10:18:55;;;;;;;2.30;1.63;;;;;;;2.12;88.81;99996.03;4994489;28;20816;-71
2021/01/13 10:21:22;;;;;;;2.43;1.63;;;;;;;2.16;88.50;99993.59;4993524;28;20447;-72
2021/01/13 10:23:48;;;;;;;3.30;2.37;;;;;;;2.16;88.28;99991.72;4994200;28;20427;-73
2021/01/13 10:26:14;;;;;;;1.70;1.57;;;;;;;2.16;88.42;99986.31;4994118;28;20423;-71
2021/01/13 10:28:40;;;;;;;4.07;2.40;;;;;;;2.18;88.15;99980.69;4994361;28;20425;-70
2021/01/13 10:31:07;;;;;;;8.00;2.20;;;;;;;2.21;88.16;99980.97;4976778;28;20188;-70
2021/01/13 10:33:55;;;;;;;3.07;2.67;;;;;;;2.27;88.00;99979.06;4994050;28;20399;-69
2021/01/13 10:36:30;;;;;;;6.27;2.63;;;;;;;2.27;88.16;99979.88;4993720;28;20416;-72
2021/01/13 10:39:06;;;;;;;3.27;2.53;;;;;;;2.25;87.86;99978.53;4994034;28;20430;-71
2021/01/13 10:41:34;;;;;;;4.47;2.43;;;;;;;2.24;88.01;99972.34;4993813;28;20420;-75
2021/01/13 10:44:03;;;;;;;5.07;2.30;;;;;;;2.27;88.22;99966.41;4993881;28;20432;-72
2021/01/13 10:46:44;;;;;;;9.17;3.47;;;;;;;2.32;87.66;99971.81;4993589;28;20420;-73
2021/01/13 10:49:18;;;;;;;3.93;2.37;;;;;;;2.36;87.38;99970.19;4994188;28;20407;-74
2021/01/13 10:51:47;;;;;;;2.90;2.60;;;;;;;2.37;87.32;99971.00;4993764;28;20456;-72
2021/01/13 10:54:17;;;;;;;8.67;2.20;;;;;;;2.38;87.06;99970.72;4994091;28;20424;-72
2021/01/13 10:56:43;;;;;;;2.77;1.70;;;;;;;2.41;87.09;99969.38;4993449;28;20502;-72
2021/01/13 10:59:16;;;;;;;5.80;2.73;;;;;;;2.42;87.59;99986.34;4994051;28;20412;-73
2021/01/13 11:01:46;;;;;;;1.90;1.80;;;;;;;2.36;86.45;99978.28;4993881;28;20405;-73
2021/01/13 11:04:36;;;;;;;3.10;2.27;;;;;;;2.34;86.85;99975.03;4993878;28;20412;-74
2021/01/13 11:07:08;;;;;;;5.37;2.37;;;;;;;2.33;86.73;99967.22;4975530;28;20438;-77
2021/01/13 11:09:42;;;;;;;9.90;2.57;;;;;;;2.35;86.12;99971.28;4976221;28;20988;-72
2021/01/13 11:12:09;;;;;;;3.37;2.23;;;;;;;2.34;86.29;99964.25;4993653;28;20408;-72
2021/01/13 11:14:38;;;;;;;11.47;2.37;;;;;;;2.35;86.00;99951.59;4993765;28;20760;-73
2021/01/13 11:17:12;;;;;;;16.47;3.33;;;;;;;2.35;86.42;99951.59;4993163;28;20811;-73
2021/01/13 11:19:40;;;;;;;7.10;2.13;;;;;;;2.35;86.31;99940.81;4993422;28;20423;-72
2021/01/13 11:22:06;;;;;;;2.97;1.87;;;;;;;2.34;86.26;99937.31;4992006;28;20420;-73
2021/01/13 11:24:33;;;;;;;4.10;2.03;;;;;;;2.34;86.59;99937.31;4993486;28;20428;-72
2021/01/13 11:27:01;;;;;;;2.20;1.27;;;;;;;2.35;86.36;99925.44;4992937;28;20208;-75
2021/01/13 11:29:32;;;;;;;12.00;3.10;;;;;;;2.39;86.60;99931.09;4993170;28;20520;-73
2021/01/13 11:31:59;;;;;;;3.37;1.80;;;;;;;2.43;85.94;99920.56;4993345;28;20904;-75
2021/01/13 11:34:25;;;;;;;7.73;3.13;;;;;;;2.46;86.17;99923.56;4975608;28;20425;-73
2021/01/13 11:37:23;;;;;;;2.83;2.43;;;;;;;2.47;86.48;99908.19;4992529;28;20601;-73
2021/01/13 11:40:15;;;;;;;4.10;2.43;;;;;;;2.46;85.82;99909.25;4951487;28;20435;-72
2021/01/13 11:43:21;;;;;;;7.70;2.33;;;;;;;2.48;85.72;99904.41;4993239;28;20420;-73
2021/01/13 11:46:03;;;;;;;5.30;2.47;;;;;;;2.47;86.26;99908.19;4993045;28;20544;-74
2021/01/13 11:48:49;;;;;;;9.33;2.50;;;;;;;2.44;86.58;99903.31;4992736;28;20405;-73
2021/01/13 11:51:17;;;;;;;8.13;2.63;;;;;;;2.45;86.69;99896.84;4991822;28;20456;-73
2021/01/13 11:53:45;;;;;;;3.97;2.07;;;;;;;2.48;85.80;99901.72;4992582;28;20424;-74
2021/01/13 11:56:11;;;;;;;9.10;1.70;;;;;;;2.50;86.05;99891.47;4992508;28;20768;-75